Terminal Aerodrome Forecast
Issued by NWS Wilmington, OH

Home | Current Version | Previous Version | Graphics & Text | Print | Product List | Glossary Off
Versions: 1 2 3 4 5 6 7 8 9 10 11 12 13 14 15 16 17 18 19 20

000
FTUS41 KILN 250530
TAFCMH
TAF
KCMH 250530Z 2506/2606 21012KT P6SM VCTS OVC060CB
      TEMPO 2506/2507 6SM -SHRA OVC035
     FM250700 26012G22KT P6SM OVC050
     FM251500 26017G27KT P6SM OVC025
     FM252100 26017G27KT P6SM OVC035
     FM260100 28012G20KT P6SM BKN040=

USA.gov is the U.S. government's official web portal to all federal, state and local government web resources and services.